Terminal Aerodrome Forecast
Issued by NWS

Home | Current Version | Previous Version | Text Only | Print | Product List | Glossary On
Versions: 1 2 3 4 5 6 7 8 9 10 11 12 13 14 15 16 17 18 19 20
419
FTUS43 KTOP 201133
TAFFOE
TAF
KFOE 201133Z 2012/2112 12004KT 1/2SM FG OVC003
     FM201700 12006KT 2SM BR OVC003
     FM202000 13007KT P6SM BKN007
     FM210200 17005KT P6SM BKN025
     FM210500 19005KT P6SM BKN080
     FM210900 22006KT P6SM BKN025=

USA.gov is the U.S. government's official web portal to all federal, state and local government web resources and services.